Time;durP1;ratioP1;P1;durP2;ratioP2;P2;SDS_P1;SDS_P2;PMS_P1;PMS_P2;Temp;Humidity;BMP_temperature;BMP_pressure;BME280_temperature;BME280_humidity;BME280_pressure;Samples;Min_cycle;Max_cycle;Signal;HPM_P1;HPM_P2
2021/12/02 00:02:16;;;;;;;5.72;1.20;;;3.70;99.90;;;;;;5152516;27;20074;-66
2021/12/02 00:04:43;;;;;;;4.90;1.20;;;3.70;99.90;;;;;;5151909;27;20042;-66
2021/12/02 00:07:09;;;;;;;3.33;1.20;;;3.60;99.90;;;;;;5152703;27;20046;-66
2021/12/02 00:09:37;;;;;;;4.57;1.00;;;3.50;99.90;;;;;;5153742;27;20045;-66
2021/12/02 00:12:05;;;;;;;5.05;1.25;;;3.50;99.90;;;;;;5152412;27;20054;-67
2021/12/02 00:14:39;;;;;;;3.45;1.10;;;3.50;99.90;;;;;;5152847;27;20051;-67
2021/12/02 00:17:13;;;;;;;5.28;1.02;;;3.40;99.90;;;;;;5152616;27;20114;-67
2021/12/02 00:22:26;;;;;;;5.95;1.23;;;3.40;99.90;;;;;;5151945;27;20050;-66
2021/12/02 00:24:57;;;;;;;3.53;0.93;;;3.40;99.90;;;;;;5150941;27;20117;-65
2021/12/02 00:27:26;;;;;;;6.10;1.15;;;;;;;;;;5151089;27;20110;-65
2021/12/02 00:29:57;;;;;;;2.35;0.80;;;3.30;99.90;;;;;;5151637;27;20669;-61
2021/12/02 00:32:26;;;;;;;3.42;0.80;;;3.30;99.90;;;;;;5152099;27;20525;-63
2021/12/02 00:34:51;;;;;;;4.03;1.00;;;3.20;99.90;;;;;;5152795;27;20093;-63
2021/12/02 00:37:17;;;;;;;4.95;1.05;;;3.20;99.90;;;;;;5152267;27;20054;-62
2021/12/02 00:39:43;;;;;;;3.92;1.23;;;3.10;99.90;;;;;;5152944;27;20113;-62
2021/12/02 00:42:09;;;;;;;4.25;0.93;;;3.10;99.90;;;;;;5151594;27;20456;-62
2021/12/02 00:44:37;;;;;;;4.53;1.00;;;3.00;99.90;;;;;;5151222;27;20173;-62
2021/12/02 00:47:04;;;;;;;3.75;1.02;;;3.00;99.90;;;;;;5152038;27;20040;-68
2021/12/02 00:49:30;;;;;;;4.60;1.20;;;3.00;99.90;;;;;;5150795;27;20050;-67
2021/12/02 00:51:58;;;;;;;7.65;1.38;;;2.90;99.90;;;;;;5152163;27;20054;-68
2021/12/02 00:54:26;;;;;;;6.30;1.30;;;2.90;99.90;;;;;;5151497;27;20039;-68
2021/12/02 00:56:53;;;;;;;4.68;1.20;;;2.90;99.90;;;;;;5151720;27;20049;-68
2021/12/02 00:59:20;;;;;;;7.03;1.30;;;2.90;99.90;;;;;;5152109;27;20054;-67
2021/12/02 01:01:48;;;;;;;3.20;1.10;;;2.80;99.90;;;;;;5151952;27;20039;-68
2021/12/02 01:04:21;;;;;;;2.72;0.85;;;2.80;99.90;;;;;;5151750;27;20039;-68
2021/12/02 01:06:47;;;;;;;6.50;1.40;;;2.70;99.90;;;;;;5152542;27;20031;-67
2021/12/02 01:09:13;;;;;;;4.40;1.00;;;2.70;99.90;;;;;;5151491;27;20533;-67
2021/12/02 01:11:40;;;;;;;3.67;0.95;;;2.70;99.90;;;;;;5151622;27;20038;-67
2021/12/02 01:14:08;;;;;;;2.63;0.80;;;2.60;99.90;;;;;;5150414;27;20074;-62
2021/12/02 01:16:34;;;;;;;4.85;1.23;;;2.60;99.90;;;;;;5152062;27;20047;-64
2021/12/02 01:19:00;;;;;;;4.50;1.00;;;2.60;99.90;;;;;;5151996;27;20039;-61
2021/12/02 01:21:28;;;;;;;2.35;0.90;;;2.60;99.90;;;;;;5151668;27;20481;-62
2021/12/02 01:24:00;;;;;;;2.60;1.00;;;2.60;99.90;;;;;;5151014;27;20038;-61
2021/12/02 01:26:28;;;;;;;5.28;1.27;;;2.60;99.90;;;;;;5151473;27;20039;-62
2021/12/02 01:28:56;;;;;;;3.13;0.77;;;2.60;99.90;;;;;;5150581;27;20042;-62
2021/12/02 01:31:22;;;;;;;4.60;0.98;;;2.60;99.90;;;;;;5149977;27;20038;-61
2021/12/02 01:33:50;;;;;;;6.05;1.08;;;2.60;99.90;;;;;;5151554;27;20046;-61
2021/12/02 01:36:17;;;;;;;3.35;0.93;;;2.50;99.90;;;;;;5150867;27;20078;-61
2021/12/02 01:38:43;;;;;;;4.10;1.02;;;2.60;99.90;;;;;;5151167;27;20043;-61
2021/12/02 01:41:09;;;;;;;3.20;1.00;;;2.60;99.90;;;;;;5152057;27;20045;-61
2021/12/02 01:43:53;;;;;;;3.78;1.20;;;2.60;99.90;;;;;;5150957;27;20528;-62
2021/12/02 01:46:25;;;;;;;2.92;0.80;;;2.60;99.90;;;;;;5151364;27;20046;-61
2021/12/02 01:49:06;;;;;;;2.50;0.82;;;2.60;99.90;;;;;;5151545;27;20031;-61
2021/12/02 01:51:40;;;;;;;5.60;1.17;;;2.60;99.90;;;;;;5149722;27;20046;-61
2021/12/02 01:54:09;;;;;;;5.13;1.20;;;2.60;99.90;;;;;;5151294;27;20049;-61
2021/12/02 01:56:43;;;;;;;4.82;1.48;;;2.70;99.90;;;;;;5150989;27;20488;-62
2021/12/02 01:59:25;;;;;;;3.60;0.90;;;2.70;99.90;;;;;;5149946;27;20034;-61
2021/12/02 02:01:52;;;;;;;;;;;2.70;99.90;;;;;;5151956;27;20042;-61
2021/12/02 02:04:20;;;;;;;5.47;1.02;;;2.80;99.90;;;;;;5151184;27;19923;-62
2021/12/02 02:07:04;;;;;;;5.97;1.27;;;2.80;99.90;;;;;;5151310;27;20039;-61
2021/12/02 02:09:34;;;;;;;4.43;1.10;;;2.90;99.90;;;;;;5150849;27;20087;-62
2021/12/02 02:12:10;;;;;;;5.55;1.33;;;3.00;99.90;;;;;;5150570;27;20129;-61
2021/12/02 02:14:37;;;;;;;6.10;1.10;;;3.10;99.90;;;;;;5149630;27;20043;-61
2021/12/02 02:17:12;;;;;;;7.38;1.58;;;3.10;99.90;;;;;;5149421;27;20135;-61
2021/12/02 02:19:38;;;;;;;5.88;1.50;;;3.20;99.90;;;;;;5151064;27;20465;-62
2021/12/02 02:22:05;;;;;;;5.78;1.25;;;3.20;99.90;;;;;;5151586;27;20047;-61
2021/12/02 02:24:31;;;;;;;4.90;1.17;;;3.20;99.90;;;;;;5150912;27;20811;-61
2021/12/02 02:26:57;;;;;;;4.43;1.00;;;3.20;99.90;;;;;;5149491;27;20035;-65
2021/12/02 02:29:23;;;;;;;3.17;0.85;;;3.20;99.90;;;;;;5149624;27;20042;-66
2021/12/02 02:31:49;;;;;;;2.13;0.80;;;3.20;99.90;;;;;;5150910;27;20173;-65
2021/12/02 02:34:15;;;;;;;3.05;0.90;;;3.10;99.90;;;;;;5149687;27;20088;-66
2021/12/02 02:36:52;;;;;;;3.78;1.00;;;3.10;99.90;;;;;;5150485;27;20510;-66
2021/12/02 02:39:19;;;;;;;3.65;1.10;;;3.00;99.90;;;;;;5150876;27;20450;-66
2021/12/02 02:41:46;;;;;;;5.35;1.17;;;3.00;99.90;;;;;;5149750;27;20599;-66
2021/12/02 02:44:13;;;;;;;3.83;0.95;;;2.90;99.90;;;;;;5131788;27;20125;-66
2021/12/02 02:46:40;;;;;;;2.88;1.08;;;2.90;99.90;;;;;;5151518;27;20042;-66
2021/12/02 02:49:15;;;;;;;3.60;0.80;;;2.80;99.90;;;;;;5155119;27;20035;-66
2021/12/02 02:51:43;;;;;;;3.30;0.95;;;2.80;99.90;;;;;;5154471;27;20041;-66
2021/12/02 02:54:10;;;;;;;2.13;0.60;;;2.80;99.90;;;;;;5154139;27;20058;-66
2021/12/02 02:56:47;;;;;;;1.85;0.90;;;2.70;99.90;;;;;;5153846;27;20075;-66
2021/12/02 02:59:26;;;;;;;3.67;1.08;;;2.70;99.90;;;;;;5154308;27;20049;-66
2021/12/02 03:07:29;;;;;;;4.55;0.90;;;2.70;99.90;;;;;;5154055;27;20078;-61
2021/12/02 03:12:31;;;;;;;4.70;1.23;;;2.70;99.90;;;;;;5153861;27;20484;-61
2021/12/02 03:17:28;;;;;;;2.53;0.73;;;2.70;99.90;;;;;;5153335;27;20043;-61
2021/12/02 03:19:54;;;;;;;2.72;0.70;;;2.70;99.90;;;;;;5153791;27;20053;-61
2021/12/02 03:22:20;;;;;;;3.50;1.10;;;2.60;99.90;;;;;;5153815;27;20047;-61
2021/12/02 03:24:46;;;;;;;2.80;0.73;;;2.60;99.90;;;;;;5152681;27;20035;-62
2021/12/02 03:27:12;;;;;;;1.95;0.70;;;2.60;99.90;;;;;;5153584;27;20034;-62
2021/12/02 03:29:39;;;;;;;2.05;0.70;;;2.50;99.90;;;;;;5153662;27;20069;-62
2021/12/02 03:32:05;;;;;;;1.88;0.70;;;2.50;99.90;;;;;;5152713;27;20039;-61
2021/12/02 03:34:31;;;;;;;2.47;0.80;;;2.50;99.90;;;;;;5153638;27;20095;-61
2021/12/02 03:36:57;;;;;;;1.80;0.60;;;2.50;99.90;;;;;;5153955;27;20035;-61
2021/12/02 03:39:23;;;;;;;2.20;0.70;;;2.50;99.90;;;;;;5152110;27;20038;-61
2021/12/02 03:41:48;;;;;;;1.13;0.47;;;2.50;99.90;;;;;;5153403;27;20097;-61
2021/12/02 03:44:14;;;;;;;2.92;0.60;;;2.50;99.90;;;;;;5153355;27;20035;-66
2021/12/02 03:46:41;;;;;;;2.78;0.80;;;2.40;99.90;;;;;;5134630;27;20042;-66
2021/12/02 03:49:07;;;;;;;4.53;0.80;;;2.40;99.90;;;;;;5153662;27;20046;-66
2021/12/02 03:51:33;;;;;;;2.80;0.70;;;2.40;99.90;;;;;;5134321;27;20034;-66
2021/12/02 03:53:59;;;;;;;2.92;0.70;;;2.40;99.90;;;;;;5151675;27;20046;-65
2021/12/02 03:56:25;;;;;;;2.38;0.70;;;2.40;99.90;;;;;;5153092;27;20102;-66
2021/12/02 03:58:52;;;;;;;3.63;1.05;;;2.40;99.90;;;;;;5150539;27;20045;-66
2021/12/02 04:01:19;;;;;;;2.50;0.82;;;2.40;99.90;;;;;;5153392;27;20378;-65
2021/12/02 04:03:45;;;;;;;4.13;0.80;;;2.40;99.90;;;;;;5152874;27;20113;-66
2021/12/02 04:06:11;;;;;;;4.25;0.80;;;2.40;99.90;;;;;;5153375;27;20513;-66
2021/12/02 04:08:51;;;;;;;2.42;0.70;;;2.40;99.90;;;;;;5151400;27;20074;-66
2021/12/02 04:16:26;;;;;;;4.53;0.90;;;2.40;99.90;;;;;;5152537;27;20055;-65
2021/12/02 04:18:51;;;;;;;1.58;0.60;;;2.40;99.90;;;;;;5152682;27;20083;-66
2021/12/02 04:21:18;;;;;;;4.72;1.15;;;2.40;99.90;;;;;;5151572;27;20102;-66
2021/12/02 04:23:44;;;;;;;2.83;0.60;;;2.30;99.90;;;;;;5150925;27;20482;-66
2021/12/02 04:26:10;;;;;;;1.92;0.82;;;2.30;99.90;;;;;;5152764;27;20046;-61
2021/12/02 04:28:35;;;;;;;2.72;0.85;;;2.30;99.90;;;;;;5152487;27;20030;-61
2021/12/02 04:31:01;;;;;;;3.15;1.10;;;2.30;99.90;;;;;;5151816;27;20031;-61
2021/12/02 04:33:29;;;;;;;3.58;0.90;;;2.30;99.90;;;;;;5133401;27;20095;-62
2021/12/02 04:35:55;;;;;;;2.53;0.90;;;2.30;99.90;;;;;;5151643;27;20034;-62
2021/12/02 04:38:21;;;;;;;3.22;0.90;;;2.20;99.90;;;;;;5152136;27;20042;-61
2021/12/02 04:40:47;;;;;;;4.60;1.08;;;2.20;99.90;;;;;;5152803;27;20039;-61
2021/12/02 04:43:12;;;;;;;2.63;1.10;;;2.20;99.90;;;;;;5151498;27;20482;-62
2021/12/02 04:45:38;;;;;;;3.25;0.85;;;2.00;99.90;;;;;;5152656;27;20078;-66
2021/12/02 04:48:05;;;;;;;3.10;0.85;;;;;;;;;;5116456;27;20041;-65
2021/12/02 04:50:31;;;;;;;2.35;0.80;;;;;;;;;;5153001;27;20039;-65
2021/12/02 04:52:57;;;;;;;1.95;0.73;;;;;;;;;;5151726;27;20503;-65
2021/12/02 04:55:23;;;;;;;3.50;0.82;;;;;;;;;;5152457;27;20045;-65
2021/12/02 04:57:49;;;;;;;2.58;0.70;;;;;;;;;;5150255;27;20047;-64
2021/12/02 05:00:16;;;;;;;5.45;0.90;;;;;;;;;;5134066;27;20509;-65
2021/12/02 05:02:42;;;;;;;2.58;1.08;;;;;;;;;;5150317;27;20035;-65
2021/12/02 05:05:09;;;;;;;3.75;1.13;;;1.70;99.90;;;;;;5152463;27;20071;-66
2021/12/02 05:07:35;;;;;;;3.05;0.95;;;1.70;99.90;;;;;;5150226;27;20081;-67
2021/12/02 05:10:01;;;;;;;2.28;1.00;;;1.70;99.90;;;;;;5133188;27;20066;-66
2021/12/02 05:12:27;;;;;;;3.45;1.20;;;1.80;99.90;;;;;;5150459;27;20565;-67
2021/12/02 05:14:53;;;;;;;4.00;1.15;;;1.80;99.90;;;;;;5132812;27;20129;-67
2021/12/02 05:17:18;;;;;;;2.22;0.70;;;1.80;99.90;;;;;;5149452;27;20050;-71
2021/12/02 05:19:45;;;;;;;2.45;1.00;;;1.70;99.90;;;;;;5149509;27;20505;-66
2021/12/02 05:22:12;;;;;;;2.05;1.10;;;1.70;99.90;;;;;;5149995;27;20083;-63
2021/12/02 05:24:37;;;;;;;2.80;1.08;;;1.80;99.90;;;;;;5150550;27;20117;-65
2021/12/02 05:27:03;;;;;;;2.65;0.90;;;1.80;99.90;;;;;;5149735;27;20117;-65
2021/12/02 05:29:29;;;;;;;4.38;1.10;;;1.90;99.90;;;;;;5147650;27;20045;-65
2021/12/02 05:31:55;;;;;;;1.27;0.77;;;1.90;99.90;;;;;;5149613;27;20081;-65
2021/12/02 05:34:21;;;;;;;1.55;0.90;;;1.90;99.90;;;;;;5150392;27;20499;-65
2021/12/02 05:36:47;;;;;;;0.90;0.50;;;2.00;99.90;;;;;;5150103;27;20113;-65
2021/12/02 05:39:13;;;;;;;1.60;0.70;;;2.00;99.90;;;;;;5148563;27;20054;-65
2021/12/02 05:41:38;;;;;;;1.50;0.60;;;2.00;99.90;;;;;;5147936;27;20113;-65
2021/12/02 05:44:04;;;;;;;1.77;0.73;;;2.00;99.90;;;;;;5148895;27;20054;-65
2021/12/02 05:46:30;;;;;;;2.17;0.55;;;2.00;99.90;;;;;;5148717;27;20031;-65
2021/12/02 05:48:56;;;;;;;2.72;0.73;;;2.00;99.90;;;;;;5150059;27;20039;-65
2021/12/02 05:51:22;;;;;;;2.45;0.77;;;2.00;99.90;;;;;;5150515;27;20034;-65
2021/12/02 05:53:48;;;;;;;2.63;0.68;;;2.00;99.90;;;;;;5150120;27;20070;-65
2021/12/02 05:56:14;;;;;;;0.63;0.57;;;2.00;99.90;;;;;;5148769;27;20524;-65
2021/12/02 05:58:40;;;;;;;1.45;0.60;;;2.00;99.90;;;;;;5150532;27;20070;-65
2021/12/02 06:01:06;;;;;;;0.85;0.50;;;1.90;99.90;;;;;;5150737;27;20031;-65
2021/12/02 06:03:36;;;;;;;0.98;0.60;;;1.90;99.90;;;;;;5150033;27;20091;-65
2021/12/02 06:06:02;;;;;;;1.95;0.80;;;1.90;99.90;;;;;;5151293;27;20107;-66
2021/12/02 06:08:28;;;;;;;1.50;0.60;;;1.90;99.90;;;;;;5149055;27;20414;-64
2021/12/02 06:10:53;;;;;;;1.17;0.70;;;1.90;99.90;;;;;;5149664;27;20037;-61
2021/12/02 06:13:19;;;;;;;1.95;0.75;;;2.00;99.90;;;;;;5150320;27;20435;-60
2021/12/02 06:15:45;;;;;;;1.67;0.60;;;2.00;99.90;;;;;;5132673;27;20058;-60
2021/12/02 06:18:10;;;;;;;0.63;0.50;;;2.00;99.90;;;;;;5151159;27;20385;-60
2021/12/02 06:20:36;;;;;;;2.92;0.60;;;2.00;99.90;;;;;;5151503;27;20065;-61
2021/12/02 06:23:02;;;;;;;0.98;0.70;;;2.00;99.90;;;;;;5153467;27;20050;-61
2021/12/02 06:27:54;;;;;;;0.85;0.52;;;2.00;99.90;;;;;;5152682;27;20633;-61
2021/12/02 06:30:23;;;;;;;1.60;0.50;;;2.00;99.90;;;;;;5153849;27;20126;-61
2021/12/02 06:32:49;;;;;;;2.42;0.60;;;2.00;99.90;;;;;;5154512;27;20482;-61
2021/12/02 06:35:15;;;;;;;1.90;0.73;;;1.90;99.90;;;;;;5153453;27;20034;-61
2021/12/02 06:37:41;;;;;;;1.10;0.60;;;2.00;99.90;;;;;;5153208;27;20597;-61
2021/12/02 06:40:09;;;;;;;1.70;0.50;;;2.00;99.90;;;;;;5155124;27;20172;-61
2021/12/02 06:42:35;;;;;;;1.05;0.50;;;1.90;99.90;;;;;;5154672;27;20053;-61
2021/12/02 06:45:01;;;;;;;0.75;0.50;;;1.90;99.90;;;;;;5154797;27;20047;-61
2021/12/02 06:47:31;;;;;;;2.97;0.77;;;1.90;99.90;;;;;;5154344;27;20374;-61
2021/12/02 06:50:00;;;;;;;0.50;0.47;;;1.90;99.90;;;;;;5155154;27;20373;-61
2021/12/02 06:52:27;;;;;;;2.15;0.80;;;1.90;99.90;;;;;;5152575;27;20485;-62
2021/12/02 06:54:54;;;;;;;1.38;0.50;;;1.90;99.90;;;;;;5154323;27;20150;-61
2021/12/02 06:57:20;;;;;;;0.98;0.57;;;1.90;99.90;;;;;;5151991;27;20042;-62
2021/12/02 06:59:46;;;;;;;2.47;0.65;;;1.90;99.90;;;;;;5152853;27;20042;-62
2021/12/02 07:02:12;;;;;;;1.77;0.60;;;1.90;99.90;;;;;;5152420;27;20050;-62
2021/12/02 07:04:38;;;;;;;2.15;0.70;;;2.00;99.90;;;;;;5154274;27;20035;-62
2021/12/02 07:07:04;;;;;;;1.85;0.70;;;2.00;99.90;;;;;;5153960;27;20035;-66
2021/12/02 07:09:30;;;;;;;1.80;0.90;;;2.00;99.90;;;;;;5151722;27;20392;-66
2021/12/02 07:11:56;;;;;;;0.80;0.70;;;2.00;99.90;;;;;;5152269;27;20393;-66
2021/12/02 07:14:23;;;;;;;2.35;1.00;;;2.00;99.90;;;;;;5151974;27;20042;-63
2021/12/02 07:16:49;;;;;;;0.90;0.82;;;2.00;99.90;;;;;;5151132;27;20102;-65
2021/12/02 07:19:15;;;;;;;0.93;0.77;;;2.00;99.90;;;;;;5152488;27;20035;-65
2021/12/02 07:21:41;;;;;;;2.53;0.80;;;2.00;99.90;;;;;;5150081;27;20055;-66
2021/12/02 07:24:10;;;;;;;1.05;0.80;;;2.00;99.90;;;;;;5152630;27;20131;-65
2021/12/02 07:26:41;;;;;;;1.08;0.90;;;2.00;99.90;;;;;;5152592;27;20102;-65
2021/12/02 07:29:08;;;;;;;2.63;0.95;;;2.00;99.90;;;;;;5151491;27;20146;-65
2021/12/02 07:31:34;;;;;;;0.90;0.80;;;2.00;99.90;;;;;;5152246;27;20030;-65
2021/12/02 07:34:02;;;;;;;2.28;0.80;;;2.00;99.90;;;;;;5144180;27;20042;-66
2021/12/02 07:36:29;;;;;;;0.80;0.73;;;2.00;99.90;;;;;;5113647;27;20051;-66
2021/12/02 07:38:55;;;;;;;4.38;1.35;;;2.00;99.90;;;;;;5131111;27;20043;-66
2021/12/02 07:41:21;;;;;;;1.33;1.10;;;2.00;99.90;;;;;;5146587;27;20046;-67
2021/12/02 07:43:47;;;;;;;2.60;0.65;;;2.00;99.90;;;;;;5151677;27;20505;-66
2021/12/02 07:46:13;;;;;;;2.85;0.90;;;2.00;99.90;;;;;;5152582;27;20034;-65
2021/12/02 07:48:39;;;;;;;2.08;0.90;;;2.00;99.90;;;;;;5150128;27;20488;-66
2021/12/02 07:51:16;;;;;;;2.30;0.77;;;2.00;99.90;;;;;;5151903;27;20476;-66
2021/12/02 07:53:43;;;;;;;1.45;0.60;;;2.00;99.90;;;;;;5140364;27;20050;-66
2021/12/02 07:56:12;;;;;;;1.45;0.50;;;2.10;99.90;;;;;;5148955;27;20125;-66
2021/12/02 07:58:44;;;;;;;0.60;0.40;;;2.10;99.90;;;;;;5151229;27;20043;-67
2021/12/02 08:01:10;;;;;;;1.30;0.50;;;2.20;99.90;;;;;;5151707;27;20038;-66
2021/12/02 08:03:42;;;;;;;1.77;0.80;;;2.20;99.90;;;;;;5150469;27;20043;-66
2021/12/02 08:06:08;;;;;;;1.42;0.90;;;2.20;99.90;;;;;;5151216;27;20085;-67
2021/12/02 08:08:33;;;;;;;2.08;0.90;;;2.30;99.90;;;;;;5133288;27;20070;-66
2021/12/02 08:10:59;;;;;;;1.45;0.70;;;2.30;99.90;;;;;;5151678;27;20038;-64
2021/12/02 08:13:30;;;;;;;2.38;0.90;;;2.30;99.90;;;;;;5141333;27;20046;-64
2021/12/02 08:15:56;;;;;;;1.77;0.98;;;2.40;99.90;;;;;;5133744;27;20074;-65
2021/12/02 08:18:21;;;;;;;1.98;1.00;;;2.40;99.90;;;;;;5150360;27;20493;-64
2021/12/02 08:20:48;;;;;;;2.42;0.90;;;2.40;99.90;;;;;;5150556;27;20057;-64
2021/12/02 08:23:14;;;;;;;2.33;1.05;;;2.40;99.90;;;;;;5150500;27;20390;-65
2021/12/02 08:25:40;;;;;;;2.60;1.10;;;2.40;99.90;;;;;;5151275;27;20086;-64
2021/12/02 08:28:07;;;;;;;1.50;0.90;;;2.40;99.90;;;;;;5150126;27;20122;-64
2021/12/02 08:30:34;;;;;;;1.15;0.80;;;2.50;99.90;;;;;;5151826;27;20027;-63
2021/12/02 08:33:01;;;;;;;1.35;1.00;;;2.50;99.90;;;;;;5149229;27;20113;-64
2021/12/02 08:35:27;;;;;;;1.90;1.00;;;2.70;99.90;;;;;;5151225;27;20104;-63
2021/12/02 08:37:57;;;;;;;2.13;0.98;;;2.70;99.90;;;;;;5151032;27;20426;-64
2021/12/02 08:40:31;;;;;;;1.92;1.10;;;2.80;99.90;;;;;;5151274;27;20045;-63
2021/12/02 08:42:57;;;;;;;1.20;1.00;;;2.80;99.90;;;;;;5150632;27;20043;-63
2021/12/02 08:45:24;;;;;;;2.85;1.10;;;2.80;99.90;;;;;;5150196;27;20497;-64
2021/12/02 08:47:49;;;;;;;2.05;1.02;;;2.90;99.90;;;;;;5150591;27;20092;-63
2021/12/02 08:50:18;;;;;;;1.25;0.73;;;2.90;99.90;;;;;;5151124;27;20070;-63
2021/12/02 08:52:45;;;;;;;2.25;1.17;;;3.00;99.90;;;;;;5150723;27;20327;-64
2021/12/02 08:55:12;;;;;;;1.63;0.90;;;3.00;99.90;;;;;;5151244;27;20171;-63
2021/12/02 08:57:37;;;;;;;1.45;1.13;;;3.00;99.90;;;;;;5150670;27;20062;-66
2021/12/02 09:00:10;;;;;;;1.88;1.30;;;2.90;99.90;;;;;;5147856;27;20035;-66
2021/12/02 09:02:36;;;;;;;2.47;1.30;;;2.90;99.90;;;;;;5143164;27;20050;-66
2021/12/02 09:05:02;;;;;;;2.63;1.30;;;2.80;99.90;;;;;;5135615;27;20038;-66
2021/12/02 09:07:28;;;;;;;1.98;1.35;;;2.80;99.90;;;;;;5150722;27;20434;-66
2021/12/02 09:09:53;;;;;;;2.85;1.30;;;2.90;99.90;;;;;;5151116;27;20085;-66
2021/12/02 09:12:19;;;;;;;1.83;1.10;;;2.90;99.90;;;;;;5150230;27;20046;-66
2021/12/02 09:14:45;;;;;;;3.15;1.40;;;2.90;99.90;;;;;;5150790;27;20489;-66
2021/12/02 09:17:11;;;;;;;3.15;1.40;;;2.90;99.90;;;;;;5149035;27;20537;-66
2021/12/02 09:19:36;;;;;;;1.38;1.27;;;2.90;99.90;;;;;;5151209;27;20038;-66
2021/12/02 09:22:03;;;;;;;1.77;1.20;;;3.00;99.90;;;;;;5149536;27;20053;-66
2021/12/02 09:24:28;;;;;;;1.75;1.13;;;3.20;99.90;;;;;;5149203;27;20054;-66
2021/12/02 09:26:55;;;;;;;0.95;0.85;;;3.70;99.90;;;;;;5150154;27;20046;-66
2021/12/02 09:29:22;;;;;;;1.58;0.90;;;4.70;99.90;;;;;;5148639;27;20043;-66
2021/12/02 09:31:49;;;;;;;0.80;0.70;;;5.30;99.90;;;;;;5150613;27;20038;-66
2021/12/02 09:34:15;;;;;;;1.35;0.85;;;5.60;99.90;;;;;;5150447;27;20082;-67
2021/12/02 09:36:42;;;;;;;1.75;1.10;;;6.20;99.90;;;;;;5150813;27;20500;-66
2021/12/02 09:39:10;;;;;;;0.60;0.60;;;6.70;98.90;;;;;;5150357;27;20045;-66
2021/12/02 09:41:37;;;;;;;1.50;0.65;;;7.40;99.20;;;;;;5150619;27;20039;-63
2021/12/02 09:44:03;;;;;;;1.25;0.80;;;7.80;98.00;;;;;;5149203;27;20035;-63
2021/12/02 09:46:30;;;;;;;1.08;0.70;;;7.90;97.80;;;;;;5131246;27;20042;-63
2021/12/02 09:48:58;;;;;;;1.58;0.70;;;7.70;97.40;;;;;;5150649;27;20524;-64
2021/12/02 09:51:27;;;;;;;1.33;0.70;;;7.30;97.00;;;;;;5150034;27;20099;-64
2021/12/02 09:56:30;;;;;;;0.65;0.65;;;6.80;98.30;;;;;;5150065;27;20126;-64
2021/12/02 09:59:03;;;;;;;1.02;0.85;;;7.10;99.60;;;;;;5154902;27;20501;-67
2021/12/02 10:01:46;;;;;;;1.17;0.80;;;7.70;98.50;;;;;;5154161;27;20134;-63
2021/12/02 10:04:13;;;;;;;1.95;1.02;;;7.80;95.70;;;;;;5152925;27;20042;-64
2021/12/02 10:06:41;;;;;;;1.63;0.88;;;7.30;97.50;;;;;;5153174;27;20118;-64
2021/12/02 10:09:12;;;;;;;1.40;0.80;;;6.90;97.50;;;;;;5153102;27;20422;-64
2021/12/02 10:11:58;;;;;;;2.35;1.08;;;6.70;98.80;;;;;;5154225;27;20234;-64
2021/12/02 10:14:36;;;;;;;1.85;1.02;;;6.40;98.70;;;;;;5152797;27;20110;-64
2021/12/02 10:17:15;;;;;;;1.30;0.80;;;6.20;99.00;;;;;;5152865;27;20052;-63
2021/12/02 10:22:38;;;;;;;1.85;0.85;;;5.70;99.90;;;;;;5153541;27;20042;-66
2021/12/02 10:25:04;;;;;;;1.42;0.90;;;5.60;99.90;;;;;;5153256;27;20034;-66
2021/12/02 10:27:30;;;;;;;1.52;0.80;;;5.50;99.90;;;;;;5153648;27;20079;-66
2021/12/02 10:29:56;;;;;;;1.58;0.90;;;5.40;99.90;;;;;;5151709;27;20452;-66
2021/12/02 10:32:26;;;;;;;1.58;0.93;;;5.40;99.90;;;;;;5153499;27;20081;-67
2021/12/02 10:34:54;;;;;;;2.30;0.90;;;5.40;99.90;;;;;;5152872;27;20051;-66
2021/12/02 10:37:27;;;;;;;2.38;0.90;;;5.50;99.90;;;;;;5133510;27;20058;-64
2021/12/02 10:39:56;;;;;;;3.30;0.80;;;5.50;99.90;;;;;;5115856;27;20039;-63
2021/12/02 10:42:23;;;;;;;1.77;0.73;;;5.60;99.90;;;;;;5144676;27;20042;-63
2021/12/02 10:44:49;;;;;;;3.45;1.75;;;5.50;99.90;;;;;;5154776;27;20046;-63
2021/12/02 10:47:16;;;;;;;3.28;1.10;;;5.20;99.90;;;;;;5136346;27;20362;-64
2021/12/02 10:49:45;;;;;;;3.20;1.20;;;4.90;99.90;;;;;;5156323;27;20034;-64
2021/12/02 10:52:17;;;;;;;1.67;1.10;;;4.60;99.90;;;;;;5154354;27;20038;-63
2021/12/02 10:54:49;;;;;;;2.53;1.30;;;4.30;99.90;;;;;;5154554;27;20129;-64
2021/12/02 10:57:21;;;;;;;2.47;1.13;;;4.00;99.90;;;;;;5149928;27;20497;-65
2021/12/02 10:59:52;;;;;;;2.13;1.08;;;3.80;99.90;;;;;;5142546;27;20107;-65
2021/12/02 11:02:35;;;;;;;2.00;0.88;;;3.60;99.90;;;;;;5132275;27;20035;-66
2021/12/02 11:05:19;;;;;;;1.08;0.60;;;3.40;99.90;;;;;;5119100;27;20087;-66
2021/12/02 11:07:54;;;;;;;1.20;0.60;;;3.30;99.90;;;;;;5142133;27;20027;-66
2021/12/02 11:10:20;;;;;;;0.40;0.40;;;3.10;99.90;;;;;;5147163;27;20038;-66
2021/12/02 11:12:48;;;;;;;0.75;0.30;;;3.00;99.90;;;;;;5138688;27;20114;-64
2021/12/02 11:15:14;;;;;;;0.50;0.50;;;3.10;99.90;;;;;;5133542;27;20047;-65
2021/12/02 11:17:50;;;;;;;0.40;0.40;;;3.10;99.90;;;;;;5146996;27;20050;-64
2021/12/02 11:20:41;;;;;;;0.95;0.40;;;3.10;99.90;;;;;;5129408;27;20119;-65
2021/12/02 11:23:20;;;;;;;0.82;0.47;;;3.20;99.90;;;;;;5159480;27;20129;-65
2021/12/02 11:26:00;;;;;;;2.47;0.70;;;3.20;99.90;;;;;;5132314;27;20038;-65
2021/12/02 11:28:29;;;;;;;0.50;0.50;;;3.30;99.90;;;;;;5131434;27;20039;-68
2021/12/02 11:30:57;;;;;;;2.63;0.98;;;3.40;99.90;;;;;;5128856;27;20039;-65
2021/12/02 11:33:30;;;;;;;1.65;1.00;;;3.40;99.90;;;;;;5131396;27;20050;-65
2021/12/02 11:35:56;;;;;;;0.70;0.70;;;3.40;99.90;;;;;;5132550;27;20074;-65
2021/12/02 11:38:27;;;;;;;1.80;0.80;;;3.40;99.90;;;;;;5131051;27;20077;-66
2021/12/02 11:40:58;;;;;;;1.33;0.60;;;3.30;99.90;;;;;;5128169;27;20035;-65
2021/12/02 11:43:34;;;;;;;1.08;0.73;;;3.30;99.90;;;;;;5130711;27;20562;-66
2021/12/02 11:46:02;;;;;;;1.95;0.60;;;3.20;99.90;;;;;;5131842;27;20063;-66
2021/12/02 11:48:31;;;;;;;1.40;0.70;;;3.20;99.90;;;;;;5131203;27;20039;-65
2021/12/02 11:51:03;;;;;;;0.93;0.55;;;3.20;99.90;;;;;;5125790;27;20115;-68
2021/12/02 11:53:29;;;;;;;1.60;0.77;;;3.20;99.90;;;;;;5142316;27;20054;-68
2021/12/02 11:55:58;;;;;;;0.55;0.55;;;3.10;99.90;;;;;;5145418;27;20439;-67
2021/12/02 11:58:25;;;;;;;0.80;0.57;;;3.00;99.90;;;;;;5148412;27;20047;-65
2021/12/02 12:00:52;;;;;;;1.52;0.70;;;;;;;;;;5144489;27;20105;-64
2021/12/02 12:03:27;;;;;;;0.70;0.70;;;2.90;99.90;;;;;;5150794;27;20046;-65
2021/12/02 12:06:02;;;;;;;1.20;0.60;;;2.90;99.90;;;;;;5152706;27;20039;-65
2021/12/02 12:08:38;;;;;;;0.60;0.60;;;2.80;99.90;;;;;;5151628;27;20066;-68
2021/12/02 12:11:32;;;;;;;0.52;0.47;;;2.70;99.90;;;;;;5153854;27;20035;-63
2021/12/02 12:14:07;;;;;;;0.60;0.50;;;2.80;99.90;;;;;;5149623;27;20115;-63
2021/12/02 12:16:39;;;;;;;1.40;0.80;;;2.80;99.90;;;;;;5151331;27;20031;-69
2021/12/02 12:19:31;;;;;;;1.20;0.70;;;2.90;99.90;;;;;;5152495;27;20045;-65
2021/12/02 12:22:03;;;;;;;0.87;0.60;;;3.00;99.90;;;;;;5151466;27;20055;-66
2021/12/02 12:24:48;;;;;;;0.80;0.60;;;3.10;99.90;;;;;;5150851;27;20089;-65
2021/12/02 12:27:28;;;;;;;1.25;0.60;;;3.30;99.90;;;;;;5152294;27;20031;-66
2021/12/02 12:30:05;;;;;;;1.05;0.50;;;3.40;99.90;;;;;;5151998;27;20386;-67
2021/12/02 12:32:43;;;;;;;0.50;0.50;;;3.50;99.90;;;;;;5149878;27;20042;-65
2021/12/02 12:35:19;;;;;;;1.40;0.43;;;3.70;99.90;;;;;;5150656;27;20049;-65
2021/12/02 12:40:13;;;;;;;1.02;0.50;;;3.70;99.90;;;;;;5151633;27;20043;-64
2021/12/02 12:42:57;;;;;;;1.40;0.68;;;3.60;99.90;;;;;;5151957;27;20035;-64
2021/12/02 12:45:29;;;;;;;0.65;0.60;;;3.60;99.90;;;;;;5152831;27;20050;-64
2021/12/02 12:47:59;;;;;;;;;;;3.50;99.90;;;;;;5153039;27;20438;-64
2021/12/02 12:50:38;;;;;;;0.70;0.60;;;3.50;99.90;;;;;;5133948;27;19915;-65
2021/12/02 12:53:07;;;;;;;1.85;1.10;;;3.40;99.90;;;;;;5151802;27;20234;-64
2021/12/02 12:55:53;;;;;;;1.45;1.08;;;3.30;99.90;;;;;;5132520;27;20051;-66
2021/12/02 12:58:25;;;;;;;1.35;1.10;;;3.30;99.90;;;;;;5149572;27;20046;-65
2021/12/02 13:01:00;;;;;;;1.17;1.08;;;3.30;99.90;;;;;;5151195;27;20047;-64
2021/12/02 13:03:36;;;;;;;3.55;1.90;;;3.30;99.90;;;;;;5151597;27;20038;-65
2021/12/02 13:06:17;;;;;;;2.08;1.80;;;3.20;99.90;;;;;;5152201;27;20464;-67
2021/12/02 13:09:01;;;;;;;2.65;1.70;;;3.10;99.90;;;;;;5149155;27;20113;-67
2021/12/02 13:11:34;;;;;;;2.25;1.58;;;3.00;99.90;;;;;;5149455;27;20046;-67
2021/12/02 13:14:04;;;;;;;1.60;1.20;;;2.90;99.90;;;;;;5151079;27;20553;-67
2021/12/02 13:16:29;;;;;;;1.10;0.98;;;2.90;99.90;;;;;;5150327;27;20043;-65
2021/12/02 13:19:11;;;;;;;0.70;0.70;;;2.80;99.90;;;;;;5149628;27;20275;-65
2021/12/02 13:21:38;;;;;;;0.80;0.77;;;2.80;99.90;;;;;;5148937;27;20558;-65
2021/12/02 13:24:09;;;;;;;0.70;0.50;;;2.80;99.90;;;;;;5145687;27;20051;-65
2021/12/02 13:26:36;;;;;;;1.20;0.40;;;2.80;99.90;;;;;;5149304;27;20504;-65
2021/12/02 13:29:16;;;;;;;0.40;0.38;;;2.80;99.90;;;;;;5147052;27;20081;-65
2021/12/02 13:31:51;;;;;;;1.33;0.50;;;2.90;99.90;;;;;;5129518;27;20569;-65
2021/12/02 13:34:19;;;;;;;0.82;0.50;;;2.90;99.90;;;;;;5130387;27;20062;-65
2021/12/02 13:36:51;;;;;;;0.57;0.43;;;2.90;99.90;;;;;;5129825;27;20050;-65
2021/12/02 13:39:18;;;;;;;0.88;0.60;;;2.80;99.90;;;;;;5129779;27;20672;-65